Main page
METAR-TAF:

METAR-TAF

Airports :

Lubbock Preston Smith International Airport

Lubbock, Texas, United States

latitude: 33-40-03N, longitude: 101-49-17W, elevation: 3280 ft

Current weather observation

The report was made 37 minutes ago, at 08:53 UTC
Calm wind
Temperature 75°F
Humidity 61%
Pressure 30.12 in. Hg
Visibility: 10 miles
Few clouds at a height of 15000 ft
Scattered clouds at a height of 25000 ft

METAR: KLBB 170853Z 00000KT 10SM FEW150 SCT250 24/16 A3012 RMK AO2 SLP139 T02440161 50003

Time: 04:30 (09:30 UTC)

Forecast

The report was made 4 hours and 10 minutes ago, at 05:20 UTC
Forecast valid from 17 at 06 UTC to 18 at 06 UTC
Wind 13 mph from the South/Southeast
Visibility: 6 miles
Scattered clouds at a height of 25000 ft

TAF: KLBB 170520Z 1706/1806 16011KT P6SM SCT250

Weather observations and forecasts of more than 4000 airports (METAR and TAF reports).

The available stations are represented by yellow and red dots on the map.

Hover mouse over dot to see the name of the station.

Then click to see weather observations and forecasts.

To change the map : click on the green buttons with a black cross to zoom in, on the green button with a dash to zoom out, or on the green arrows for adjacent maps.


METAR-TAF: